createdAt,value
2019-01-30T00:01:18.576Z,-2.10
2019-01-30T00:03:47.102Z,-2.10
2019-01-30T00:06:16.014Z,-2.20
2019-01-30T00:08:45.090Z,-2.30
2019-01-30T00:11:15.427Z,-2.30
2019-01-30T00:13:43.903Z,-2.30
2019-01-30T00:16:11.807Z,-2.20
2019-01-30T00:18:39.746Z,-0.30
2019-01-30T00:21:08.259Z,-2.20
2019-01-30T00:23:37.399Z,-2.30
2019-01-30T00:26:05.527Z,-2.30
2019-01-30T00:28:33.923Z,-2.30
2019-01-30T00:31:01.832Z,-2.30
2019-01-30T00:33:29.956Z,-2.30
2019-01-30T00:35:58.470Z,-2.30
2019-01-30T00:38:26.541Z,-2.30
2019-01-30T00:40:55.434Z,-2.30
2019-01-30T00:43:23.789Z,-2.20
2019-01-30T00:45:52.397Z,-2.20
2019-01-30T00:48:21.170Z,-2.10
2019-01-30T00:50:49.232Z,-2.20
2019-01-30T00:53:17.265Z,-2.20
2019-01-30T00:55:45.188Z,-2.10
2019-01-30T00:58:13.862Z,-2.10
2019-01-30T01:00:42.326Z,-2.10
2019-01-30T01:03:10.320Z,-2.10
2019-01-30T01:05:38.228Z,-2.20
2019-01-30T01:08:06.495Z,-2.30
2019-01-30T01:10:34.959Z,-2.40
2019-01-30T01:13:03.425Z,-2.40
2019-01-30T01:15:32.027Z,-2.50
2019-01-30T01:18:00.188Z,-2.50
2019-01-30T01:20:28.015Z,-2.50
2019-01-30T01:22:55.943Z,-2.50
2019-01-30T01:25:24.348Z,-2.40
2019-01-30T01:27:52.646Z,-2.40
2019-01-30T01:30:25.734Z,-2.50
2019-01-30T01:32:53.969Z,-2.60
2019-01-30T01:35:22.073Z,-2.70
2019-01-30T01:37:50.965Z,-2.90
2019-01-30T01:40:19.346Z,-3.10
2019-01-30T01:42:47.517Z,-3.10
2019-01-30T01:45:18.383Z,-3.20
2019-01-30T01:47:47.115Z,-3.30
2019-01-30T01:50:17.479Z,-3.30
2019-01-30T01:52:45.641Z,-3.30
2019-01-30T01:55:13.894Z,-3.30
2019-01-30T01:57:42.363Z,-3.20
2019-01-30T02:00:15.872Z,-3.30
2019-01-30T02:02:44.132Z,-3.40
2019-01-30T02:05:15.459Z,-3.30
2019-01-30T02:07:43.724Z,-3.20
2019-01-30T02:12:43.047Z,-3.10
2019-01-30T02:15:14.056Z,-2.90
2019-01-30T02:17:41.943Z,-2.90
2019-01-30T02:20:31.069Z,-2.70
2019-01-30T02:22:59.293Z,-2.50
2019-01-30T02:27:55.673Z,-2.40
2019-01-30T02:35:22.744Z,-2.10
2019-01-30T02:37:51.332Z,-2.00
2019-01-30T02:40:21.644Z,-1.80
2019-01-30T02:42:49.942Z,-2.00
2019-01-30T02:45:20.490Z,-1.70
2019-01-30T02:47:50.146Z,-1.60
2019-01-30T02:52:47.338Z,-1.50
2019-01-30T02:55:16.301Z,-1.40
2019-01-30T03:00:23.847Z,-1.40
2019-01-30T03:02:52.068Z,-1.40
2019-01-30T03:05:20.663Z,-1.30
2019-01-30T03:10:17.941Z,-1.20
2019-01-30T03:20:15.814Z,-1.20
2019-01-30T03:22:43.904Z,-1.40
2019-01-30T03:25:13.175Z,-1.20
2019-01-30T03:32:42.584Z,-1.20
2019-01-30T03:35:11.106Z,-1.20
2019-01-30T03:37:39.358Z,-1.20
2019-01-30T03:40:09.290Z,-1.00
2019-01-30T03:42:37.595Z,-1.20
2019-01-30T03:45:06.549Z,-1.20
2019-01-30T03:47:35.188Z,-1.20
2019-01-30T03:50:03.823Z,-1.20
2019-01-30T03:57:29.058Z,-0.80
2019-01-30T03:59:57.674Z,-0.70
2019-01-30T04:02:25.461Z,-0.90
2019-01-30T04:04:53.328Z,-0.70
2019-01-30T04:07:21.514Z,-0.70
2019-01-30T04:09:49.378Z,-0.70
2019-01-30T04:14:45.288Z,-0.70
2019-01-30T04:19:41.908Z,-0.60
2019-01-30T04:22:09.849Z,-0.60
2019-01-30T04:27:06.387Z,-0.50
2019-01-30T04:29:35.265Z,-0.60
2019-01-30T04:32:03.563Z,-0.70
2019-01-30T04:36:59.777Z,-0.70
2019-01-30T04:39:27.787Z,-0.70
2019-01-30T04:41:55.910Z,-0.60
2019-01-30T04:49:21.260Z,-0.80
2019-01-30T04:56:45.935Z,-0.80
2019-01-30T04:59:13.911Z,-0.70
2019-01-30T05:01:49.452Z,-0.70
2019-01-30T05:04:11.824Z,-0.50
2019-01-30T05:06:39.738Z,-0.40
2019-01-30T05:09:08.883Z,-0.60
2019-01-30T05:14:05.164Z,-0.30
2019-01-30T05:19:01.266Z,-0.20
2019-01-30T05:21:29.770Z,-0.20
2019-01-30T05:23:57.692Z,-0.10
2019-01-30T05:31:22.055Z,0.00
2019-01-30T05:33:50.390Z,-0.20
2019-01-30T05:38:46.691Z,-0.30
2019-01-30T05:41:14.963Z,-0.20
2019-01-30T05:43:43.387Z,-0.30
2019-01-30T05:48:39.711Z,-0.30
2019-01-30T05:53:37.157Z,-0.30
2019-01-30T05:58:48.564Z,-0.40
2019-01-30T06:03:44.894Z,-0.30
2019-01-30T06:06:12.645Z,-0.50
2019-01-30T06:08:40.580Z,-0.50
2019-01-30T06:11:09.043Z,-0.50
2019-01-30T06:13:37.625Z,-0.50
2019-01-30T06:18:34.298Z,-0.50
2019-01-30T06:23:30.313Z,-0.40
2019-01-30T06:28:29.299Z,-0.40
2019-01-30T06:30:56.080Z,-0.50
2019-01-30T06:33:24.325Z,-0.50
2019-01-30T06:35:52.807Z,-0.40
2019-01-30T06:38:20.920Z,-0.50
2019-01-30T06:40:49.452Z,-0.30
2019-01-30T06:43:17.534Z,-0.40
2019-01-30T06:45:45.753Z,-0.10
2019-01-30T06:48:14.055Z,-0.20
2019-01-30T06:53:10.507Z,-0.30
2019-01-30T06:55:38.596Z,0.10
2019-01-30T06:58:06.835Z,-0.20
2019-01-30T07:00:34.788Z,0.00
2019-01-30T07:03:02.907Z,0.00
2019-01-30T07:05:30.767Z,-0.10
2019-01-30T07:07:59.440Z,0.20
2019-01-30T07:10:28.547Z,-0.20
2019-01-30T07:15:25.056Z,-0.10
2019-01-30T07:27:53.577Z,0.00
2019-01-30T07:30:28.449Z,0.00
2019-01-30T07:32:56.733Z,0.20
2019-01-30T07:37:52.872Z,0.30
2019-01-30T07:40:21.646Z,0.40
2019-01-30T07:45:19.929Z,0.50
2019-01-30T07:55:15.549Z,0.70
2019-01-30T07:57:44.015Z,0.90
2019-01-30T08:02:53.627Z,1.10
2019-01-30T08:05:22.696Z,1.50
2019-01-30T08:10:20.105Z,1.70
2019-01-30T08:22:46.598Z,2.20
2019-01-30T08:32:51.404Z,2.20
2019-01-30T08:37:47.908Z,2.60
2019-01-30T08:40:16.150Z,2.80
2019-01-30T08:45:17.653Z,2.90
2019-01-30T08:50:14.694Z,2.80
2019-01-30T08:55:12.702Z,3.10
2019-01-30T08:57:40.614Z,3.60
2019-01-30T09:00:13.272Z,3.80
2019-01-30T09:02:41.408Z,3.90
2019-01-30T09:05:09.645Z,4.00
2019-01-30T09:07:44.000Z,4.30
2019-01-30T09:10:11.176Z,4.30
2019-01-30T09:12:39.852Z,4.40
2019-01-30T09:15:10.439Z,3.70
2019-01-30T09:17:39.000Z,4.00
2019-01-30T09:20:11.939Z,4.20
2019-01-30T09:22:39.875Z,4.00
2019-01-30T09:25:10.034Z,3.80
2019-01-30T09:27:38.940Z,4.20
2019-01-30T09:30:19.085Z,4.00
2019-01-30T09:32:47.710Z,4.10
2019-01-30T09:35:15.992Z,3.90
2019-01-30T09:37:44.647Z,3.90
2019-01-30T09:40:13.964Z,3.90
2019-01-30T09:42:42.330Z,4.00
2019-01-30T09:45:13.686Z,4.10
2019-01-30T09:47:42.179Z,4.20
2019-01-30T09:50:15.239Z,4.30
2019-01-30T09:55:12.522Z,4.80
2019-01-30T09:57:40.727Z,5.80
2019-01-30T10:00:15.394Z,6.60
2019-01-30T10:02:43.662Z,7.00
2019-01-30T10:05:12.621Z,8.20
2019-01-30T10:07:41.416Z,9.50
2019-01-30T10:10:17.517Z,9.90
2019-01-30T10:12:45.847Z,10.30
2019-01-30T10:15:18.045Z,10.90
2019-01-30T10:17:46.790Z,10.90
2019-01-30T10:20:18.136Z,10.50
2019-01-30T10:22:46.292Z,11.10
2019-01-30T10:25:14.802Z,11.20
2019-01-30T10:27:42.728Z,10.10
2019-01-30T10:30:15.410Z,8.80
2019-01-30T10:32:43.578Z,8.60
2019-01-30T10:35:12.159Z,7.80
2019-01-30T10:37:40.834Z,7.10
2019-01-30T10:40:13.054Z,6.70
2019-01-30T10:42:41.103Z,6.50
2019-01-30T10:45:09.958Z,6.20
2019-01-30T10:47:37.800Z,6.20
2019-01-30T10:50:07.662Z,5.90
2019-01-30T10:52:36.024Z,5.80
2019-01-30T10:55:06.551Z,5.80
2019-01-30T11:02:35.215Z,5.40
2019-01-30T11:05:04.879Z,5.70
2019-01-30T11:07:33.179Z,5.80
2019-01-30T11:10:01.406Z,6.60
2019-01-30T11:12:29.243Z,7.30
2019-01-30T11:14:57.707Z,7.40
2019-01-30T11:17:26.329Z,7.70
2019-01-30T11:19:54.502Z,7.10
2019-01-30T11:22:22.488Z,6.20
2019-01-30T11:24:51.276Z,5.90
2019-01-30T11:27:19.475Z,5.90
2019-01-30T11:29:47.711Z,5.90
2019-01-30T11:32:16.040Z,5.90
2019-01-30T11:34:44.664Z,5.90
2019-01-30T11:37:12.956Z,5.80
2019-01-30T11:39:41.136Z,5.70
2019-01-30T11:42:09.990Z,5.70
2019-01-30T11:44:38.565Z,5.50
2019-01-30T11:47:06.641Z,5.20
2019-01-30T11:49:34.714Z,5.30
2019-01-30T11:52:02.618Z,5.10
2019-01-30T11:54:38.638Z,5.00
2019-01-30T11:57:01.997Z,4.90
2019-01-30T11:59:30.800Z,4.70
2019-01-30T12:01:59.054Z,4.70
2019-01-30T12:04:27.223Z,4.70
2019-01-30T12:06:55.054Z,4.70
2019-01-30T12:09:23.366Z,4.70
2019-01-30T12:14:19.909Z,4.70
2019-01-30T12:16:48.078Z,4.70
2019-01-30T12:19:16.535Z,4.80
2019-01-30T12:21:45.149Z,4.60
2019-01-30T12:24:13.106Z,4.70
2019-01-30T12:26:41.487Z,4.80
2019-01-30T12:29:09.584Z,4.80
2019-01-30T12:31:37.710Z,4.90
2019-01-30T12:34:06.204Z,4.80
2019-01-30T12:36:34.025Z,4.90
2019-01-30T12:39:05.467Z,5.10
2019-01-30T12:41:35.759Z,5.10
2019-01-30T12:44:05.449Z,5.10
2019-01-30T12:46:34.233Z,5.10
2019-01-30T12:49:02.406Z,5.30
2019-01-30T12:51:30.785Z,5.40
2019-01-30T12:53:59.072Z,5.50
2019-01-30T12:56:27.952Z,5.40
2019-01-30T12:58:56.325Z,5.50
2019-01-30T13:01:24.217Z,5.70
2019-01-30T13:03:52.354Z,5.60
2019-01-30T13:06:20.470Z,5.30
2019-01-30T13:08:48.432Z,5.10
2019-01-30T13:11:17.141Z,4.90
2019-01-30T13:13:45.088Z,4.80
2019-01-30T13:16:13.125Z,4.80
2019-01-30T13:18:41.409Z,4.90
2019-01-30T13:23:38.170Z,4.40
2019-01-30T13:28:35.291Z,4.20
2019-01-30T13:31:03.734Z,4.10
2019-01-30T13:33:31.753Z,4.20
2019-01-30T13:40:56.953Z,4.40
2019-01-30T13:43:24.802Z,4.20
2019-01-30T13:48:21.599Z,4.10
2019-01-30T13:50:49.868Z,4.00
2019-01-30T13:53:18.039Z,4.10
2019-01-30T13:58:17.950Z,4.00
2019-01-30T14:00:52.269Z,4.00
2019-01-30T14:05:49.476Z,4.00
2019-01-30T14:10:45.619Z,4.20
2019-01-30T14:13:14.191Z,4.30
2019-01-30T14:15:42.476Z,4.30
2019-01-30T14:18:10.308Z,4.10
2019-01-30T14:20:38.314Z,3.90
2019-01-30T14:23:07.575Z,3.80
2019-01-30T14:28:04.458Z,3.70
2019-01-30T14:30:36.075Z,3.70
2019-01-30T14:33:04.806Z,3.50
2019-01-30T14:35:37.454Z,3.60
2019-01-30T14:38:05.498Z,3.40
2019-01-30T14:40:33.584Z,3.40
2019-01-30T14:47:59.252Z,3.20
2019-01-30T15:03:08.067Z,3.00
2019-01-30T15:05:36.534Z,2.90
2019-01-30T15:13:02.570Z,3.30
2019-01-30T15:15:32.006Z,3.00
2019-01-30T15:18:00.645Z,2.90
2019-01-30T15:23:00.734Z,2.70
2019-01-30T15:27:59.392Z,2.50
2019-01-30T15:30:33.802Z,2.30
2019-01-30T15:33:03.119Z,2.20
2019-01-30T15:35:33.823Z,2.40
2019-01-30T15:38:04.384Z,2.50
2019-01-30T15:40:33.496Z,2.30
2019-01-30T15:43:01.586Z,2.50
2019-01-30T15:45:31.234Z,2.50
2019-01-30T15:48:00.630Z,2.50
2019-01-30T15:50:31.347Z,2.50
2019-01-30T15:53:03.907Z,2.40
2019-01-30T15:55:32.510Z,2.40
2019-01-30T15:58:07.541Z,2.40
2019-01-30T16:01:11.126Z,2.40
2019-01-30T16:03:40.226Z,2.40
2019-01-30T16:06:08.666Z,2.40
2019-01-30T16:08:37.935Z,2.40
2019-01-30T16:11:08.727Z,2.30
2019-01-30T16:13:36.844Z,2.30
2019-01-30T16:16:07.101Z,2.20
2019-01-30T16:18:37.508Z,2.30
2019-01-30T16:21:05.546Z,2.30
2019-01-30T16:23:34.923Z,2.30
2019-01-30T16:26:07.027Z,2.30
2019-01-30T16:28:36.383Z,2.30
2019-01-30T16:33:35.294Z,2.20
2019-01-30T16:36:03.968Z,2.20
2019-01-30T16:38:33.892Z,2.20
2019-01-30T16:41:02.249Z,2.20
2019-01-30T16:43:32.441Z,2.20
2019-01-30T16:46:02.038Z,2.20
2019-01-30T16:48:30.992Z,2.20
2019-01-30T16:51:00.666Z,2.20
2019-01-30T16:53:31.325Z,2.20
2019-01-30T16:56:03.734Z,2.20
2019-01-30T16:58:32.954Z,2.20
2019-01-30T17:03:33.459Z,2.20
2019-01-30T17:06:07.549Z,2.20
2019-01-30T17:08:33.943Z,2.10
2019-01-30T17:11:03.734Z,2.20
2019-01-30T17:13:34.431Z,2.20
2019-01-30T17:16:03.673Z,2.20
2019-01-30T17:18:34.776Z,2.20
2019-01-30T17:21:04.204Z,2.30
2019-01-30T17:23:34.464Z,2.20
2019-01-30T17:26:05.548Z,2.30
2019-01-30T17:28:34.809Z,2.30
2019-01-30T17:33:59.279Z,2.40
2019-01-30T17:36:28.600Z,2.30
2019-01-30T17:38:58.452Z,2.20
2019-01-30T17:43:59.678Z,2.10
2019-01-30T17:54:01.940Z,1.80
2019-01-30T17:56:33.179Z,1.80
2019-01-30T17:59:04.260Z,1.60
2019-01-30T18:01:35.157Z,1.60
2019-01-30T18:04:06.624Z,1.60
2019-01-30T18:06:38.065Z,1.50
2019-01-30T18:09:10.889Z,1.10
2019-01-30T18:14:11.301Z,1.30
2019-01-30T18:16:42.347Z,1.30
2019-01-30T18:19:15.465Z,1.20
2019-01-30T18:21:48.544Z,1.10
2019-01-30T18:26:55.543Z,1.00
2019-01-30T18:29:27.922Z,1.00
2019-01-30T18:31:59.546Z,1.00
2019-01-30T18:34:45.061Z,0.90
2019-01-30T18:37:17.610Z,0.90
2019-01-30T18:39:55.533Z,1.00
2019-01-30T18:42:30.597Z,1.30
2019-01-30T18:45:02.819Z,1.00
2019-01-30T18:47:34.675Z,1.00
2019-01-30T18:50:07.777Z,1.10
2019-01-30T18:52:39.539Z,1.00
2019-01-30T18:57:40.851Z,1.00
2019-01-30T19:00:23.645Z,1.00
2019-01-30T19:02:56.518Z,1.10
2019-01-30T19:08:04.772Z,1.00
2019-01-30T19:10:37.914Z,0.90
2019-01-30T19:13:09.469Z,0.80
2019-01-30T19:18:13.992Z,0.70
2019-01-30T19:20:48.258Z,0.70
2019-01-30T19:23:20.893Z,0.70
2019-01-30T19:28:26.268Z,0.90
2019-01-30T19:31:01.902Z,0.50
2019-01-30T19:33:37.602Z,0.40
2019-01-30T19:38:44.169Z,0.30
2019-01-30T19:41:19.080Z,0.30
2019-01-30T19:43:56.554Z,0.20
2019-01-30T19:46:31.499Z,0.10
2019-01-30T19:54:10.527Z,0.50
2019-01-30T19:59:18.937Z,0.70
2019-01-30T20:02:05.194Z,0.80
2019-01-30T20:07:14.803Z,0.60
2019-01-30T20:09:49.011Z,0.70
2019-01-30T20:22:34.957Z,0.80
2019-01-30T20:27:42.263Z,0.70
2019-01-30T20:30:27.497Z,0.60
2019-01-30T20:35:40.457Z,0.70
2019-01-30T20:38:15.260Z,0.20
2019-01-30T20:40:51.262Z,0.50
2019-01-30T20:43:29.759Z,0.30
2019-01-30T20:46:03.763Z,0.10
2019-01-30T20:56:23.138Z,-0.10
2019-01-30T21:01:34.162Z,0.00
2019-01-30T21:06:39.676Z,-0.10
2019-01-30T21:16:50.159Z,-0.20
2019-01-30T21:21:55.472Z,-0.40
2019-01-30T21:29:32.749Z,-0.40
2019-01-30T21:37:03.270Z,-0.60
2019-01-30T21:39:33.863Z,-0.70
2019-01-30T21:42:04.360Z,-0.60
2019-01-30T21:54:41.864Z,-0.80
2019-01-30T21:59:41.641Z,-0.80
2019-01-30T22:02:11.546Z,-0.80
2019-01-30T22:04:42.000Z,-0.70
2019-01-30T22:14:41.348Z,-0.90
2019-01-30T22:17:10.200Z,-1.00
2019-01-30T22:27:04.801Z,-0.90
2019-01-30T22:29:34.096Z,-1.10
2019-01-30T22:54:20.387Z,-1.50
2019-01-30T22:56:48.421Z,-1.50
2019-01-30T23:07:46.665Z,-2.00
2019-01-30T23:20:34.461Z,-2.50
2019-01-30T23:24:08.678Z,-2.50
2019-01-30T23:27:07.379Z,-2.70
2019-01-30T23:30:42.917Z,-2.60
2019-01-30T23:40:19.417Z,-2.40
2019-01-30T23:43:46.593Z,-1.40
2019-01-30T23:49:50.881Z,-2.20
